createdAt,value
2019-04-27T00:01:53.681Z,99.90
2019-04-27T00:04:32.886Z,99.90
2019-04-27T00:07:26.808Z,99.90
2019-04-27T00:10:00.918Z,99.90
2019-04-27T00:12:33.100Z,99.90
2019-04-27T00:15:03.439Z,99.90
2019-04-27T00:17:48.683Z,99.90
2019-04-27T00:20:35.102Z,99.90
2019-04-27T00:23:07.749Z,99.90
2019-04-27T00:25:37.489Z,99.90
2019-04-27T00:28:07.448Z,99.90
2019-04-27T00:30:38.583Z,99.90
2019-04-27T00:33:08.479Z,99.90
2019-04-27T00:35:44.950Z,99.90
2019-04-27T00:38:26.345Z,99.90
2019-04-27T00:41:10.903Z,99.90
2019-04-27T00:43:41.059Z,99.90
2019-04-27T00:46:10.952Z,99.90
2019-04-27T00:48:40.730Z,99.90
2019-04-27T00:51:10.483Z,99.90
2019-04-27T00:53:41.265Z,99.90
2019-04-27T00:56:36.508Z,99.90
2019-04-27T00:59:25.842Z,99.90
2019-04-27T01:02:11.370Z,99.90
2019-04-27T01:04:42.750Z,99.90
2019-04-27T01:07:14.208Z,99.90
2019-04-27T01:09:44.194Z,99.90
2019-04-27T01:12:15.769Z,99.90
2019-04-27T01:14:45.609Z,99.90
2019-04-27T01:17:15.390Z,99.90
2019-04-27T01:19:45.171Z,99.90
2019-04-27T01:22:14.957Z,99.90
2019-04-27T01:24:44.737Z,99.90
2019-04-27T01:27:20.785Z,99.90
2019-04-27T01:29:50.639Z,99.90
2019-04-27T01:32:20.782Z,99.90
2019-04-27T01:34:50.699Z,99.90
2019-04-27T01:37:21.224Z,99.90
2019-04-27T01:39:51.381Z,99.90
2019-04-27T01:42:21.454Z,99.90
2019-04-27T01:44:53.556Z,99.90
2019-04-27T01:47:23.354Z,99.90
2019-04-27T01:49:53.053Z,99.90
2019-04-27T01:52:22.796Z,99.90
2019-04-27T01:54:52.566Z,99.90
2019-04-27T01:57:22.426Z,99.90
2019-04-27T01:59:52.233Z,99.90
2019-04-27T02:02:42.091Z,99.90
2019-04-27T02:05:25.796Z,99.90
2019-04-27T02:07:55.506Z,99.90
2019-04-27T02:10:25.318Z,99.90
2019-04-27T02:12:55.147Z,99.90
2019-04-27T02:15:24.971Z,99.90
2019-04-27T02:17:54.881Z,99.90
2019-04-27T02:20:24.718Z,99.90
2019-04-27T02:22:54.548Z,99.90
2019-04-27T02:25:24.361Z,99.90
2019-04-27T02:27:59.987Z,99.90
2019-04-27T02:30:49.857Z,99.90
2019-04-27T02:33:33.671Z,99.90
2019-04-27T02:36:03.360Z,99.90
2019-04-27T02:38:33.196Z,99.90
2019-04-27T02:41:04.388Z,99.90
2019-04-27T02:43:45.298Z,99.90
2019-04-27T02:46:15.243Z,99.90
2019-04-27T02:48:55.622Z,99.90
2019-04-27T02:51:22.362Z,99.90
2019-04-27T02:54:00.339Z,99.90
2019-04-27T02:56:30.742Z,99.90
2019-04-27T02:59:00.725Z,99.90
2019-04-27T03:01:33.105Z,99.90
2019-04-27T03:04:03.001Z,99.90
2019-04-27T03:06:32.951Z,99.90
2019-04-27T03:09:02.888Z,99.90
2019-04-27T03:11:34.340Z,99.90
2019-04-27T03:14:32.534Z,99.90
2019-04-27T03:16:56.193Z,99.90
2019-04-27T03:19:43.100Z,99.90
2019-04-27T03:22:30.984Z,99.90
2019-04-27T03:25:30.364Z,99.90
2019-04-27T03:28:06.196Z,99.90
2019-04-27T03:30:36.691Z,99.90
2019-04-27T03:33:06.779Z,99.90
2019-04-27T03:35:37.322Z,99.90
2019-04-27T03:38:10.404Z,99.90
2019-04-27T03:40:40.481Z,99.90
2019-04-27T03:43:15.685Z,99.90
2019-04-27T03:45:45.516Z,99.90
2019-04-27T03:48:15.568Z,99.90
2019-04-27T03:51:09.932Z,99.90
2019-04-27T03:53:45.521Z,99.90
2019-04-27T03:56:46.784Z,99.90
2019-04-27T03:59:21.126Z,99.90
2019-04-27T04:01:50.960Z,99.90
2019-04-27T04:04:20.714Z,99.90
2019-04-27T04:06:50.604Z,99.90
2019-04-27T04:09:26.244Z,99.90
2019-04-27T04:12:09.446Z,99.90
2019-04-27T04:14:42.520Z,99.90
2019-04-27T04:17:12.727Z,99.90
2019-04-27T04:19:54.506Z,99.90
2019-04-27T04:22:14.192Z,99.90
2019-04-27T04:24:44.209Z,99.90
2019-04-27T04:27:13.927Z,99.90
2019-04-27T04:29:43.727Z,99.90
2019-04-27T04:32:13.523Z,99.90
2019-04-27T04:34:43.246Z,99.90
2019-04-27T04:37:12.927Z,99.90
2019-04-27T04:39:42.706Z,99.90
2019-04-27T04:42:34.539Z,99.90
2019-04-27T04:45:27.176Z,99.90
2019-04-27T04:47:59.883Z,99.90
2019-04-27T04:50:30.511Z,99.90
2019-04-27T04:53:00.501Z,99.90
2019-04-27T04:55:30.725Z,99.90
2019-04-27T04:58:01.672Z,99.90
2019-04-27T05:00:31.522Z,99.90
2019-04-27T05:03:01.205Z,99.90
2019-04-27T05:05:30.936Z,99.90
2019-04-27T05:08:00.869Z,99.90
2019-04-27T05:10:31.299Z,99.90
2019-04-27T05:13:01.211Z,99.90
2019-04-27T05:15:31.138Z,99.90
2019-04-27T05:18:00.907Z,99.90
2019-04-27T05:20:36.510Z,99.90
2019-04-27T05:23:06.197Z,99.90
2019-04-27T05:25:35.895Z,99.90
2019-04-27T05:28:05.622Z,99.90
2019-04-27T05:30:35.300Z,99.90
2019-04-27T05:33:05.117Z,99.90
2019-04-27T05:35:34.862Z,99.90
2019-04-27T05:38:07.138Z,99.90
2019-04-27T05:40:36.154Z,99.90
2019-04-27T05:43:05.858Z,99.90
2019-04-27T05:46:51.161Z,99.90
2019-04-27T05:49:25.908Z,99.90
2019-04-27T05:51:55.705Z,99.90
2019-04-27T05:54:25.564Z,99.90
2019-04-27T05:56:55.231Z,99.90
2019-04-27T05:59:25.060Z,99.90
2019-04-27T06:01:54.884Z,99.90
2019-04-27T06:04:24.590Z,99.90
2019-04-27T06:06:55.454Z,99.90
2019-04-27T06:09:25.228Z,99.90
2019-04-27T06:11:54.979Z,99.90
2019-04-27T06:14:24.670Z,99.90
2019-04-27T06:16:54.404Z,99.90
2019-04-27T06:19:24.131Z,99.90
2019-04-27T06:21:53.797Z,99.90
2019-04-27T06:24:23.588Z,99.90
2019-04-27T06:26:53.341Z,99.90
2019-04-27T06:29:23.114Z,99.90
2019-04-27T06:31:52.785Z,99.90
2019-04-27T06:34:22.642Z,99.90
2019-04-27T06:36:52.429Z,99.90
2019-04-27T06:39:22.109Z,99.90
2019-04-27T06:41:51.793Z,99.90
2019-04-27T06:44:21.536Z,99.90
2019-04-27T06:46:51.346Z,99.90
2019-04-27T06:49:21.088Z,99.90
2019-04-27T06:51:50.937Z,99.90
2019-04-27T06:54:21.469Z,99.90
2019-04-27T06:56:51.310Z,99.90
2019-04-27T06:59:21.052Z,99.90
2019-04-27T07:01:50.726Z,99.90
2019-04-27T07:04:20.449Z,99.90
2019-04-27T07:06:54.159Z,99.90
2019-04-27T07:09:21.604Z,99.90
2019-04-27T07:11:51.382Z,99.90
2019-04-27T07:14:22.244Z,99.90
2019-04-27T07:16:51.944Z,99.90
2019-04-27T07:19:21.769Z,99.90
2019-04-27T07:21:51.471Z,99.90
2019-04-27T07:24:21.155Z,99.90
2019-04-27T07:26:51.036Z,99.90
2019-04-27T07:29:23.084Z,99.90
2019-04-27T07:31:52.498Z,99.90
2019-04-27T07:34:22.162Z,99.90
2019-04-27T07:36:51.864Z,99.90
2019-04-27T07:39:21.559Z,99.90
2019-04-27T07:41:51.266Z,99.90
2019-04-27T07:44:49.994Z,99.90
2019-04-27T07:47:29.415Z,99.90
2019-04-27T07:50:01.494Z,99.90
2019-04-27T07:52:31.939Z,99.90
2019-04-27T07:55:01.696Z,99.90
2019-04-27T07:57:32.519Z,99.90
2019-04-27T08:00:02.231Z,99.90
2019-04-27T08:02:32.450Z,99.90
2019-04-27T08:05:02.242Z,99.90
2019-04-27T08:07:32.116Z,99.90
2019-04-27T08:10:01.974Z,99.90
2019-04-27T08:12:32.842Z,99.90
2019-04-27T08:15:02.709Z,99.90
2019-04-27T08:17:32.726Z,99.90
2019-04-27T08:20:02.450Z,99.90
2019-04-27T08:22:32.622Z,99.90
2019-04-27T08:25:02.551Z,99.90
2019-04-27T08:27:41.702Z,99.90
2019-04-27T08:30:33.803Z,99.90
2019-04-27T08:33:06.131Z,99.90
2019-04-27T08:35:35.846Z,99.90
2019-04-27T08:38:05.807Z,99.90
2019-04-27T08:40:35.484Z,99.90
2019-04-27T08:43:05.234Z,99.90
2019-04-27T08:45:34.911Z,99.90
2019-04-27T08:48:04.642Z,99.90
2019-04-27T08:50:34.411Z,99.90
2019-04-27T08:53:04.117Z,99.90
2019-04-27T08:55:33.930Z,99.90
2019-04-27T08:58:03.828Z,99.90
2019-04-27T09:00:33.605Z,99.90
2019-04-27T09:03:03.326Z,99.90
2019-04-27T09:05:33.066Z,99.90
2019-04-27T09:08:26.001Z,99.80
2019-04-27T09:11:18.673Z,99.70
2019-04-27T09:14:09.052Z,99.40
2019-04-27T09:17:02.209Z,98.90
2019-04-27T09:19:42.287Z,97.00
2019-04-27T09:22:16.011Z,97.30
2019-04-27T09:24:43.425Z,96.20
2019-04-27T09:27:13.108Z,95.20
2019-04-27T09:29:42.757Z,93.40
2019-04-27T09:32:12.529Z,93.60
2019-04-27T09:34:42.201Z,93.10
2019-04-27T09:37:11.899Z,91.50
2019-04-27T09:39:41.609Z,91.80
2019-04-27T09:42:11.388Z,91.90
2019-04-27T09:44:41.155Z,91.20
2019-04-27T09:47:10.842Z,89.40
2019-04-27T09:49:40.521Z,88.20
2019-04-27T09:52:10.203Z,88.60
2019-04-27T09:54:39.937Z,87.60
2019-04-27T09:57:10.699Z,85.80
2019-04-27T09:59:40.477Z,86.60
2019-04-27T10:02:10.439Z,86.60
2019-04-27T10:04:40.263Z,86.50
2019-04-27T10:07:10.057Z,83.50
2019-04-27T10:09:39.877Z,81.90
2019-04-27T10:12:11.271Z,82.00
2019-04-27T10:14:40.981Z,77.50
2019-04-27T10:17:10.717Z,78.50
2019-04-27T10:19:40.563Z,76.50
2019-04-27T10:22:10.305Z,73.80
2019-04-27T10:24:40.045Z,75.00
2019-04-27T10:27:09.815Z,74.30
2019-04-27T10:29:39.577Z,72.00
2019-04-27T10:32:09.521Z,72.20
2019-04-27T10:34:40.246Z,71.80
2019-04-27T10:37:11.049Z,71.50
2019-04-27T10:39:40.755Z,71.60
2019-04-27T10:42:10.487Z,71.70
2019-04-27T10:44:40.222Z,71.20
2019-04-27T10:47:10.182Z,71.70
2019-04-27T10:49:39.857Z,68.50
2019-04-27T10:52:09.728Z,67.40
2019-04-27T10:54:39.712Z,66.80
2019-04-27T10:57:09.438Z,65.90
2019-04-27T10:59:39.191Z,64.20
2019-04-27T11:02:08.969Z,64.00
2019-04-27T11:04:51.164Z,61.60
2019-04-27T11:07:22.628Z,62.50
2019-04-27T11:09:52.754Z,62.40
2019-04-27T11:12:22.623Z,62.80
2019-04-27T11:14:52.448Z,63.50
2019-04-27T11:17:22.188Z,61.70
2019-04-27T11:19:51.898Z,61.90
2019-04-27T11:22:21.780Z,60.50
2019-04-27T11:24:51.578Z,62.30
2019-04-27T11:27:21.303Z,61.30
2019-04-27T11:29:50.975Z,60.90
2019-04-27T11:32:20.696Z,59.30
2019-04-27T11:35:05.799Z,59.70
2019-04-27T11:37:37.352Z,59.50
2019-04-27T11:40:07.641Z,59.70
2019-04-27T11:42:37.355Z,60.10
2019-04-27T11:45:08.334Z,59.90
2019-04-27T11:47:38.128Z,60.50
2019-04-27T11:50:08.427Z,59.60
2019-04-27T11:52:38.348Z,58.70
2019-04-27T11:55:09.023Z,58.00
2019-04-27T11:57:38.713Z,58.20
2019-04-27T12:00:10.340Z,57.40
2019-04-27T12:02:40.277Z,56.10
2019-04-27T12:05:10.497Z,55.50
2019-04-27T12:07:40.267Z,55.90
2019-04-27T12:10:10.544Z,56.90
2019-04-27T12:12:40.243Z,57.70
2019-04-27T12:15:11.919Z,58.70
2019-04-27T12:17:41.635Z,59.70
2019-04-27T12:20:11.392Z,58.70
2019-04-27T12:22:41.233Z,57.70
2019-04-27T12:25:11.624Z,58.10
2019-04-27T12:27:55.211Z,58.50
2019-04-27T12:30:43.284Z,58.50
2019-04-27T12:33:13.039Z,57.80
2019-04-27T12:35:42.751Z,56.30
2019-04-27T12:38:13.550Z,56.60
2019-04-27T12:40:43.494Z,57.20
2019-04-27T12:43:13.205Z,57.10
2019-04-27T12:45:43.708Z,55.30
2019-04-27T12:48:14.529Z,55.70
2019-04-27T12:50:46.168Z,54.80
2019-04-27T12:53:50.060Z,53.60
2019-04-27T12:56:24.109Z,53.50
2019-04-27T12:58:57.759Z,53.90
2019-04-27T13:01:27.766Z,53.80
2019-04-27T13:03:59.270Z,54.20
2019-04-27T13:06:29.050Z,56.00
2019-04-27T13:08:58.760Z,56.50
2019-04-27T13:11:28.459Z,57.60
2019-04-27T13:13:58.169Z,57.30
2019-04-27T13:16:30.434Z,57.10
2019-04-27T13:18:59.858Z,56.60
2019-04-27T13:21:29.627Z,57.00
2019-04-27T13:24:03.979Z,57.60
2019-04-27T13:26:30.998Z,57.50
2019-04-27T13:29:00.699Z,58.30
2019-04-27T13:31:30.715Z,58.40
2019-04-27T13:34:02.637Z,58.10
2019-04-27T13:36:33.160Z,57.90
2019-04-27T13:39:06.398Z,58.20
2019-04-27T13:41:36.458Z,57.50
2019-04-27T13:44:06.637Z,58.00
2019-04-27T13:46:55.915Z,57.00
2019-04-27T13:49:43.571Z,56.90
2019-04-27T13:52:16.389Z,56.40
2019-04-27T13:54:46.138Z,56.40
2019-04-27T13:57:18.221Z,56.30
2019-04-27T13:59:47.796Z,56.20
2019-04-27T14:02:19.215Z,56.50
2019-04-27T14:04:49.069Z,55.90
2019-04-27T14:07:18.783Z,55.70
2019-04-27T14:09:48.636Z,55.50
2019-04-27T14:12:21.645Z,55.60
2019-04-27T14:14:51.683Z,55.20
2019-04-27T14:17:21.545Z,54.40
2019-04-27T14:19:51.485Z,53.50
2019-04-27T14:22:21.241Z,53.10
2019-04-27T14:24:51.084Z,52.20
2019-04-27T14:27:22.608Z,51.90
2019-04-27T14:29:53.280Z,51.90
2019-04-27T14:32:22.998Z,51.50
2019-04-27T14:34:52.690Z,51.50
2019-04-27T14:37:22.375Z,50.90
2019-04-27T14:39:52.082Z,50.80
2019-04-27T14:42:21.881Z,50.30
2019-04-27T14:44:51.714Z,50.10
2019-04-27T14:47:23.154Z,50.10
2019-04-27T14:49:52.911Z,50.40
2019-04-27T14:52:22.614Z,50.30
2019-04-27T14:54:52.279Z,50.50
2019-04-27T14:57:22.042Z,49.60
2019-04-27T14:59:51.786Z,49.80
2019-04-27T15:02:21.506Z,50.70
2019-04-27T15:04:51.216Z,50.60
2019-04-27T15:07:21.974Z,50.50
2019-04-27T15:09:54.398Z,50.10
2019-04-27T15:12:24.476Z,49.40
2019-04-27T15:14:57.359Z,49.50
2019-04-27T15:17:26.783Z,50.80
2019-04-27T15:20:01.615Z,50.20
2019-04-27T15:22:32.296Z,50.00
2019-04-27T15:25:13.669Z,50.60
2019-04-27T15:27:40.433Z,50.80
2019-04-27T15:30:14.433Z,50.40
2019-04-27T15:33:02.376Z,50.30
2019-04-27T15:35:40.504Z,51.30
2019-04-27T15:38:15.640Z,50.60
2019-04-27T15:41:04.450Z,50.70
2019-04-27T15:43:38.565Z,51.10
2019-04-27T15:46:08.350Z,51.20
2019-04-27T15:48:38.527Z,51.30
2019-04-27T15:51:17.053Z,51.70
2019-04-27T15:53:41.803Z,51.40
2019-04-27T15:56:12.644Z,51.70
2019-04-27T15:58:42.380Z,51.80
2019-04-27T16:01:12.170Z,52.60
2019-04-27T16:03:41.999Z,52.50
2019-04-27T16:06:12.127Z,52.30
2019-04-27T16:08:45.304Z,52.30
2019-04-27T16:11:16.529Z,52.30
2019-04-27T16:13:45.252Z,52.50
2019-04-27T16:16:14.943Z,53.20
2019-04-27T16:18:44.634Z,53.20
2019-04-27T16:21:14.371Z,53.90
2019-04-27T16:23:44.161Z,53.20
2019-04-27T16:26:15.267Z,52.90
2019-04-27T16:28:49.718Z,53.10
2019-04-27T16:31:20.262Z,53.20
2019-04-27T16:33:49.977Z,53.40
2019-04-27T16:36:21.195Z,52.60
2019-04-27T16:39:03.693Z,53.40
2019-04-27T16:41:37.363Z,54.00
2019-04-27T16:44:06.840Z,54.90
2019-04-27T16:46:39.398Z,55.70
2019-04-27T16:49:14.056Z,56.30
2019-04-27T16:51:40.301Z,56.40
2019-04-27T16:54:17.041Z,57.30
2019-04-27T16:56:45.588Z,57.00
2019-04-27T16:59:38.679Z,57.20
2019-04-27T17:01:46.382Z,57.10
2019-04-27T17:04:16.730Z,58.10
2019-04-27T17:06:48.873Z,58.00
2019-04-27T17:09:18.901Z,57.60
2019-04-27T17:11:50.243Z,57.70
2019-04-27T17:14:36.429Z,57.90
2019-04-27T17:17:24.333Z,58.00
2019-04-27T17:19:58.161Z,58.20
2019-04-27T17:22:28.628Z,58.80
2019-04-27T17:24:58.652Z,59.00
2019-04-27T17:27:38.146Z,59.20
2019-04-27T17:30:09.787Z,59.50
2019-04-27T17:33:10.303Z,59.90
2019-04-27T17:35:39.546Z,61.10
2019-04-27T17:38:10.634Z,61.10
2019-04-27T17:40:39.012Z,62.60
2019-04-27T17:43:10.490Z,62.70
2019-04-27T17:45:40.454Z,63.40
2019-04-27T17:48:14.296Z,64.10
2019-04-27T17:50:43.494Z,65.10
2019-04-27T17:53:13.303Z,65.00
2019-04-27T17:55:43.130Z,66.00
2019-04-27T17:58:12.834Z,66.40
2019-04-27T18:00:44.565Z,67.10
2019-04-27T18:03:17.484Z,68.20
2019-04-27T18:05:49.181Z,68.80
2019-04-27T18:08:20.015Z,69.00
2019-04-27T18:10:48.377Z,70.10
2019-04-27T18:13:25.454Z,70.80
2019-04-27T18:15:54.014Z,71.50
2019-04-27T18:18:44.056Z,71.80
2019-04-27T18:21:14.626Z,72.80
2019-04-27T18:23:52.280Z,73.70
2019-04-27T18:26:30.374Z,74.30
2019-04-27T18:29:01.661Z,75.00
2019-04-27T18:31:31.700Z,76.20
2019-04-27T18:34:02.382Z,76.60
2019-04-27T18:36:32.132Z,77.60
2019-04-27T18:39:05.472Z,79.10
2019-04-27T18:41:34.926Z,80.20
2019-04-27T18:44:05.053Z,82.30
2019-04-27T18:46:34.876Z,83.40
2019-04-27T18:49:11.577Z,85.00
2019-04-27T18:51:52.653Z,86.80
2019-04-27T18:54:22.646Z,88.30
2019-04-27T18:57:01.887Z,90.20
2019-04-27T18:59:24.278Z,90.90
2019-04-27T19:01:54.102Z,91.70
2019-04-27T19:04:28.174Z,92.60
2019-04-27T19:06:58.493Z,93.40
2019-04-27T19:09:29.414Z,93.80
2019-04-27T19:11:59.105Z,94.40
2019-04-27T19:14:28.891Z,94.80
2019-04-27T19:16:58.847Z,92.70
2019-04-27T19:19:28.645Z,91.90
2019-04-27T19:21:58.957Z,91.50
2019-04-27T19:24:29.025Z,91.40
2019-04-27T19:27:15.398Z,91.00
2019-04-27T19:29:42.203Z,90.80
2019-04-27T19:32:11.962Z,91.10
2019-04-27T19:34:41.636Z,91.20
2019-04-27T19:37:11.426Z,91.90
2019-04-27T19:39:41.131Z,91.60
2019-04-27T19:42:10.896Z,91.70
2019-04-27T19:44:40.585Z,91.80
2019-04-27T19:47:10.590Z,92.20
2019-04-27T19:49:40.354Z,92.50
2019-04-27T19:52:10.171Z,92.70
2019-04-27T19:54:40.016Z,92.90
2019-04-27T19:57:09.721Z,93.10
2019-04-27T19:59:45.137Z,93.30
2019-04-27T20:02:20.157Z,93.30
2019-04-27T20:05:03.865Z,93.40
2019-04-27T20:07:34.048Z,93.60
2019-04-27T20:10:05.773Z,93.80
2019-04-27T20:12:35.609Z,94.00
2019-04-27T20:15:05.823Z,94.20
2019-04-27T20:17:35.591Z,94.50
2019-04-27T20:20:07.457Z,94.70
2019-04-27T20:22:38.101Z,94.50
2019-04-27T20:25:08.380Z,94.60
2019-04-27T20:27:46.245Z,94.70
2019-04-27T20:30:11.634Z,95.10
2019-04-27T20:32:43.063Z,95.00
2019-04-27T20:35:12.916Z,94.90
2019-04-27T20:37:43.646Z,95.30
2019-04-27T20:40:13.585Z,95.80
2019-04-27T20:42:43.300Z,96.10
2019-04-27T20:45:13.287Z,95.80
2019-04-27T20:47:43.233Z,96.00
2019-04-27T20:50:13.127Z,96.00
2019-04-27T20:52:54.137Z,96.30
2019-04-27T20:55:24.819Z,96.60
2019-04-27T20:58:01.725Z,96.80
2019-04-27T21:00:26.163Z,97.00
2019-04-27T21:03:11.967Z,97.20
2019-04-27T21:06:16.155Z,97.50
2019-04-27T21:08:45.960Z,97.80
2019-04-27T21:11:15.694Z,98.10
2019-04-27T21:13:46.491Z,98.80
2019-04-27T21:16:16.436Z,98.80
2019-04-27T21:18:46.457Z,99.20
2019-04-27T21:21:16.225Z,99.70
2019-04-27T21:23:46.085Z,99.80
2019-04-27T21:26:15.937Z,99.90
2019-04-27T21:28:48.002Z,99.90
2019-04-27T21:31:17.704Z,99.90
2019-04-27T21:33:47.459Z,99.90
2019-04-27T21:36:17.195Z,99.90
2019-04-27T21:38:46.885Z,99.90
2019-04-27T21:41:16.626Z,99.90
2019-04-27T21:43:46.368Z,99.90
2019-04-27T21:46:16.103Z,99.90
2019-04-27T21:48:45.928Z,99.90
2019-04-27T21:51:15.742Z,99.90
2019-04-27T21:54:19.946Z,99.90
2019-04-27T21:56:51.680Z,99.90
2019-04-27T21:59:21.192Z,99.90
2019-04-27T22:01:51.788Z,99.90
2019-04-27T22:04:22.414Z,99.90
2019-04-27T22:06:52.231Z,99.90
2019-04-27T22:09:22.099Z,99.90
2019-04-27T22:11:52.180Z,99.90
2019-04-27T22:14:25.860Z,99.90
2019-04-27T22:16:55.779Z,99.90
2019-04-27T22:19:26.123Z,99.90
2019-04-27T22:21:56.022Z,99.90
2019-04-27T22:24:33.095Z,99.90
2019-04-27T22:27:02.818Z,99.90
2019-04-27T22:29:32.719Z,99.90
2019-04-27T22:32:02.461Z,99.90
2019-04-27T22:34:32.189Z,99.90
2019-04-27T22:37:02.907Z,99.90
2019-04-27T22:39:45.899Z,99.90
2019-04-27T22:42:33.522Z,99.90
2019-04-27T22:45:14.798Z,99.90
2019-04-27T22:47:44.496Z,99.90
2019-04-27T22:50:14.444Z,99.90
2019-04-27T22:52:44.441Z,99.90
2019-04-27T22:55:14.305Z,99.90
2019-04-27T22:57:53.841Z,99.90
2019-04-27T23:00:43.946Z,99.90
2019-04-27T23:03:19.044Z,99.90
2019-04-27T23:05:48.831Z,99.90
2019-04-27T23:08:18.586Z,99.90
2019-04-27T23:10:48.315Z,99.90
2019-04-27T23:13:18.217Z,99.90
2019-04-27T23:15:51.273Z,99.90
2019-04-27T23:18:22.583Z,99.90
2019-04-27T23:20:52.536Z,99.90
2019-04-27T23:23:22.373Z,99.90
2019-04-27T23:25:52.175Z,99.90
2019-04-27T23:28:21.932Z,99.90
2019-04-27T23:31:10.935Z,99.90
2019-04-27T23:33:43.229Z,99.90
2019-04-27T23:36:12.911Z,99.90
2019-04-27T23:38:42.635Z,99.90
2019-04-27T23:41:13.555Z,99.90
2019-04-27T23:43:43.234Z,99.90
2019-04-27T23:46:13.960Z,99.90
2019-04-27T23:48:43.644Z,99.90
2019-04-27T23:51:21.584Z,99.90
2019-04-27T23:53:51.682Z,99.90
2019-04-27T23:56:22.588Z,99.90
2019-04-27T23:58:52.579Z,99.90
